Time;durP1;ratioP1;P1;durP2;ratioP2;P2;SDS_P1;SDS_P2;PMS_P1;PMS_P2;Temp;Humidity;BMP_temperature;BMP_pressure;BME280_temperature;BME280_humidity;BME280_pressure;Samples;Min_cycle;Max_cycle;Signal;HPM_P1;HPM_P2
2024/02/18 00:01:37;;;;;;;10.35;6.03;;;6.80;79.40;;;;;;4993155;28;20033;-74
2024/02/18 00:04:03;;;;;;;7.82;5.80;;;6.90;80.40;;;;;;4995834;28;20042;-73
2024/02/18 00:06:28;;;;;;;11.38;6.45;;;6.80;79.60;;;;;;4997120;28;20022;-72
2024/02/18 00:08:54;;;;;;;8.73;5.78;;;6.80;79.80;;;;;;4997020;28;20029;-73
2024/02/18 00:11:20;;;;;;;14.13;6.43;;;6.80;80.00;;;;;;4997007;28;20490;-72
2024/02/18 00:13:45;;;;;;;13.32;6.28;;;6.80;80.20;;;;;;4997243;28;20031;-72
2024/02/18 00:16:11;;;;;;;11.93;7.05;;;7.00;80.30;;;;;;4996778;28;20073;-73
2024/02/18 00:18:37;;;;;;;13.55;7.30;;;7.00;80.30;;;;;;4979334;28;20027;-74
2024/02/18 00:21:03;;;;;;;15.25;8.90;;;7.00;80.70;;;;;;4996967;28;20034;-73
2024/02/18 00:23:28;;;;;;;15.65;9.68;;;7.10;81.10;;;;;;4996750;28;20039;-73
2024/02/18 00:25:55;;;;;;;13.35;8.48;;;7.00;82.00;;;;;;4996813;28;20026;-73
2024/02/18 00:28:20;;;;;;;13.48;8.55;;;7.00;82.40;;;;;;4979264;28;20025;-74
2024/02/18 00:30:50;;;;;;;11.60;8.02;;;7.00;82.60;;;;;;4979134;28;20030;-72
2024/02/18 00:33:16;;;;;;;11.70;8.60;;;7.00;81.20;;;;;;4996891;28;20357;-72
2024/02/18 00:35:42;;;;;;;12.93;7.93;;;7.00;79.70;;;;;;4996617;28;20033;-73
2024/02/18 00:38:08;;;;;;;12.70;8.50;;;7.00;79.20;;;;;;4996489;28;20073;-74
2024/02/18 00:40:33;;;;;;;10.88;7.10;;;7.00;79.90;;;;;;4996521;28;20038;-74
2024/02/18 00:42:59;;;;;;;11.95;7.32;;;7.10;79.10;;;;;;4996512;28;20447;-73
2024/02/18 00:45:24;;;;;;;11.90;7.68;;;7.10;78.80;;;;;;4996333;28;20065;-74
2024/02/18 00:47:50;;;;;;;17.25;9.48;;;7.10;78.90;;;;;;4996291;28;20022;-73
2024/02/18 00:50:15;;;;;;;14.52;9.55;;;7.10;79.90;;;;;;4996342;28;20076;-73
2024/02/18 00:52:41;;;;;;;19.27;10.48;;;7.10;80.50;;;;;;4996362;28;20018;-73
2024/02/18 00:55:07;;;;;;;16.23;9.57;;;7.00;80.60;;;;;;4996185;28;20026;-74
2024/02/18 00:57:32;;;;;;;12.23;9.23;;;7.00;80.60;;;;;;4996076;28;20030;-72
2024/02/18 00:59:58;;;;;;;12.90;9.18;;;7.10;80.50;;;;;;4996098;28;20038;-74
2024/02/18 01:02:26;;;;;;;12.25;8.00;;;7.10;79.80;;;;;;4995991;28;20018;-73
2024/02/18 01:04:52;;;;;;;12.02;9.38;;;7.10;79.50;;;;;;4995942;28;20484;-74
2024/02/18 01:07:17;;;;;;;12.98;9.65;;;7.10;78.80;;;;;;4996009;28;20041;-74
2024/02/18 01:09:44;;;;;;;14.98;9.20;;;7.00;79.00;;;;;;4995914;28;20045;-73
2024/02/18 01:12:10;;;;;;;12.57;9.68;;;7.00;79.10;;;;;;4995850;28;20022;-72
2024/02/18 01:14:35;;;;;;;14.68;9.60;;;7.00;79.10;;;;;;4995626;28;20030;-74
2024/02/18 01:17:02;;;;;;;11.68;8.93;;;7.00;79.20;;;;;;4995607;28;20108;-72
2024/02/18 01:19:27;;;;;;;11.07;8.20;;;7.00;79.20;;;;;;4995718;28;20064;-72
2024/02/18 01:21:53;;;;;;;12.85;8.90;;;7.10;79.30;;;;;;4995729;28;20054;-73
2024/02/18 01:24:18;;;;;;;16.85;8.80;;;7.10;80.20;;;;;;4995574;28;20030;-72
2024/02/18 01:26:44;;;;;;;13.85;9.10;;;7.10;79.30;;;;;;4995565;28;20034;-72
2024/02/18 01:29:09;;;;;;;14.88;9.88;;;7.10;79.30;;;;;;4995609;28;20080;-73
2024/02/18 01:31:35;;;;;;;15.77;10.73;;;7.10;79.20;;;;;;4995727;28;20022;-72
2024/02/18 01:34:00;;;;;;;17.70;11.23;;;7.10;79.20;;;;;;4995538;28;20027;-72
2024/02/18 01:36:26;;;;;;;19.00;12.88;;;7.10;78.90;;;;;;4995464;28;20078;-73
2024/02/18 01:38:51;;;;;;;17.40;11.73;;;7.10;78.80;;;;;;4995323;28;20109;-73
2024/02/18 01:41:17;;;;;;;16.23;11.07;;;7.00;78.50;;;;;;4995329;28;20130;-73
2024/02/18 01:43:42;;;;;;;17.77;11.10;;;7.00;78.50;;;;;;4995277;28;20483;-73
2024/02/18 01:46:08;;;;;;;20.85;11.65;;;7.00;78.50;;;;;;4995274;28;20030;-73
2024/02/18 01:48:34;;;;;;;20.60;12.18;;;7.00;78.40;;;;;;4995218;28;20025;-73
2024/02/18 01:51:00;;;;;;;22.23;12.98;;;7.00;78.20;;;;;;4995244;28;20034;-73
2024/02/18 01:53:27;;;;;;;18.38;11.23;;;6.90;78.10;;;;;;4995205;28;20026;-72
2024/02/18 01:55:54;;;;;;;27.00;13.25;;;6.90;78.40;;;;;;4977603;28;20494;-73
2024/02/18 01:58:19;;;;;;;29.33;13.13;;;6.90;78.60;;;;;;4995025;28;20030;-74
2024/02/18 02:00:47;;;;;;;23.17;15.85;;;6.90;78.70;;;;;;4995019;28;20032;-73
2024/02/18 02:03:13;;;;;;;21.83;14.95;;;6.80;78.80;;;;;;4995030;28;20085;-72
2024/02/18 02:05:40;;;;;;;22.00;14.35;;;6.80;78.90;;;;;;4994832;28;20091;-72
2024/02/18 02:08:05;;;;;;;28.42;15.35;;;6.80;79.10;;;;;;4994851;28;20076;-72
2024/02/18 02:10:31;;;;;;;21.73;14.13;;;6.80;79.40;;;;;;4994872;28;20435;-73
2024/02/18 02:12:57;;;;;;;25.42;14.35;;;6.80;79.40;;;;;;4994791;28;20022;-73
2024/02/18 02:15:23;;;;;;;23.98;16.90;;;6.80;79.40;;;;;;4994530;28;20022;-72
2024/02/18 02:17:49;;;;;;;26.48;16.38;;;6.80;79.40;;;;;;4994620;28;20076;-73
2024/02/18 02:20:14;;;;;;;24.73;17.17;;;6.80;79.50;;;;;;4994672;28;20023;-73
2024/02/18 02:22:40;;;;;;;28.58;17.95;;;6.70;79.50;;;;;;4994598;28;20420;-73
2024/02/18 02:25:09;;;;;;;26.55;17.92;;;6.70;80.60;;;;;;4994213;28;20053;-73
2024/02/18 02:27:41;;;;;;;34.50;17.55;;;6.70;79.80;;;;;;4994090;28;20108;-72
2024/02/18 02:30:07;;;;;;;30.83;17.63;;;6.80;79.90;;;;;;4994383;28;20139;-73
2024/02/18 02:32:34;;;;;;;26.63;16.77;;;6.70;79.70;;;;;;4994391;28;20037;-73
2024/02/18 02:35:00;;;;;;;29.60;18.88;;;6.60;79.90;;;;;;4994722;28;20380;-73
2024/02/18 02:37:25;;;;;;;28.63;18.00;;;6.60;79.90;;;;;;4994275;28;20023;-73
2024/02/18 02:39:51;;;;;;;29.30;17.00;;;6.70;79.80;;;;;;4994476;28;20479;-73
2024/02/18 02:42:17;;;;;;;27.92;17.70;;;6.70;79.50;;;;;;4994210;28;20081;-73
2024/02/18 02:44:43;;;;;;;25.17;17.95;;;6.70;80.20;;;;;;4994082;28;20045;-72
2024/02/18 02:47:08;;;;;;;22.98;15.07;;;6.70;79.40;;;;;;4976726;28;20019;-73
2024/02/18 02:49:34;;;;;;;23.23;15.07;;;6.50;80.70;;;;;;4994017;28;20033;-73
2024/02/18 02:51:59;;;;;;;27.08;17.45;;;6.50;81.10;;;;;;4994106;28;20491;-73
2024/02/18 02:54:25;;;;;;;22.48;11.35;;;6.40;81.00;;;;;;4993951;28;20033;-73
2024/02/18 02:56:51;;;;;;;18.42;11.40;;;6.20;82.10;;;;;;4991901;28;20073;-72
2024/02/18 02:59:16;;;;;;;20.52;10.48;;;6.10;83.10;;;;;;4974506;28;20468;-73
2024/02/18 03:01:42;;;;;;;16.00;10.90;;;6.00;83.40;;;;;;4974131;28;20141;-72
2024/02/18 03:04:08;;;;;;;18.42;10.82;;;6.00;83.60;;;;;;4974203;28;20482;-72
2024/02/18 03:06:34;;;;;;;21.05;11.20;;;5.80;83.60;;;;;;4957234;28;20468;-73
2024/02/18 03:09:00;;;;;;;18.13;10.68;;;5.80;83.80;;;;;;4974151;28;20027;-74
2024/02/18 03:11:26;;;;;;;20.45;11.80;;;5.90;83.90;;;;;;4974184;28;20118;-74
2024/02/18 03:13:51;;;;;;;20.02;14.77;;;6.00;83.50;;;;;;4974328;28;20031;-75
2024/02/18 03:16:17;;;;;;;20.58;14.02;;;6.00;83.50;;;;;;4974082;28;20051;-74
2024/02/18 03:18:42;;;;;;;17.77;12.23;;;6.00;83.30;;;;;;4974228;28;20031;-73
2024/02/18 03:21:08;;;;;;;18.48;13.20;;;6.10;83.20;;;;;;4974023;28;20476;-73
2024/02/18 03:23:34;;;;;;;21.93;13.50;;;6.20;83.10;;;;;;4974066;28;20476;-74
2024/02/18 03:26:00;;;;;;;19.33;13.65;;;6.30;82.80;;;;;;4974196;28;20033;-76
2024/02/18 03:28:25;;;;;;;19.48;15.23;;;6.40;82.30;;;;;;4974188;28;20027;-74
2024/02/18 03:30:51;;;;;;;18.20;13.85;;;6.50;82.10;;;;;;4974144;28;20361;-75
2024/02/18 03:33:18;;;;;;;20.08;13.70;;;6.50;81.70;;;;;;4974030;28;20102;-74
2024/02/18 03:35:44;;;;;;;19.80;13.70;;;6.60;81.50;;;;;;4974082;28;20031;-75
2024/02/18 03:38:09;;;;;;;18.30;12.80;;;6.60;81.30;;;;;;4975346;28;20031;-75
2024/02/18 03:40:35;;;;;;;19.38;12.75;;;6.60;81.00;;;;;;4978110;28;20046;-74
2024/02/18 03:43:04;;;;;;;20.80;12.32;;;6.60;80.70;;;;;;4978368;28;20027;-74
2024/02/18 03:45:30;;;;;;;14.75;11.35;;;6.70;80.80;;;;;;4977830;28;20510;-74
2024/02/18 03:47:56;;;;;;;14.35;11.70;;;6.70;80.70;;;;;;4977914;28;20023;-74
2024/02/18 03:50:21;;;;;;;14.45;12.20;;;6.70;80.50;;;;;;4960813;28;20034;-75
2024/02/18 03:52:47;;;;;;;13.77;11.93;;;6.70;80.40;;;;;;4977844;28;20061;-76
2024/02/18 03:55:14;;;;;;;15.65;11.57;;;6.70;80.30;;;;;;4977767;28;20038;-74
2024/02/18 03:57:40;;;;;;;14.43;12.00;;;6.70;80.30;;;;;;4977825;28;20026;-73
2024/02/18 04:00:08;;;;;;;15.18;12.35;;;6.70;80.30;;;;;;4977971;28;20420;-74
2024/02/18 04:02:35;;;;;;;14.88;11.93;;;6.70;80.30;;;;;;4977993;28;20058;-73
2024/02/18 04:05:03;;;;;;;16.10;12.52;;;6.70;80.40;;;;;;4977848;28;20045;-75
2024/02/18 04:07:29;;;;;;;15.07;11.35;;;6.60;80.30;;;;;;4977664;28;20476;-76
2024/02/18 04:09:54;;;;;;;16.35;12.55;;;6.70;80.40;;;;;;4977816;28;20035;-74
2024/02/18 04:12:20;;;;;;;16.75;13.30;;;6.70;80.40;;;;;;4977743;28;20044;-76
2024/02/18 04:14:45;;;;;;;17.17;14.10;;;6.70;80.40;;;;;;4977787;28;20019;-77
2024/02/18 04:17:11;;;;;;;18.55;13.88;;;6.70;80.20;;;;;;4977419;28;20126;-75
2024/02/18 04:19:37;;;;;;;18.23;14.90;;;6.70;80.20;;;;;;4977423;28;20039;-74
2024/02/18 04:22:02;;;;;;;21.63;15.82;;;6.70;80.00;;;;;;4977556;28;20087;-75
2024/02/18 04:24:28;;;;;;;23.17;17.27;;;6.60;79.90;;;;;;4977243;28;20038;-73
2024/02/18 04:26:53;;;;;;;26.05;18.02;;;6.60;79.50;;;;;;4959883;28;20030;-75
2024/02/18 04:29:19;;;;;;;27.02;18.27;;;6.50;79.70;;;;;;4977252;28;20035;-74
2024/02/18 04:31:44;;;;;;;28.50;16.88;;;6.40;79.70;;;;;;4977240;28;20026;-74
2024/02/18 04:34:10;;;;;;;29.33;19.83;;;6.40;79.80;;;;;;4977111;28;20106;-73
2024/02/18 04:36:36;;;;;;;29.02;19.10;;;6.40;79.80;;;;;;4977097;28;20105;-73
2024/02/18 04:39:01;;;;;;;31.25;20.15;;;6.40;79.70;;;;;;4975708;28;20105;-74
2024/02/18 04:41:27;;;;;;;30.98;21.23;;;6.40;79.40;;;;;;4976892;28;20031;-73
2024/02/18 04:43:52;;;;;;;32.60;21.83;;;6.40;79.10;;;;;;4976909;28;20035;-73
2024/02/18 04:46:18;;;;;;;27.80;20.08;;;6.40;78.90;;;;;;4976886;28;20030;-72
2024/02/18 04:48:43;;;;;;;28.27;20.00;;;6.40;79.00;;;;;;4976386;28;20105;-72
2024/02/18 04:51:09;;;;;;;28.17;20.23;;;6.50;79.10;;;;;;4976873;28;20027;-73
2024/02/18 04:53:34;;;;;;;27.17;18.33;;;6.50;78.90;;;;;;4977066;28;20026;-73
2024/02/18 04:56:00;;;;;;;29.55;19.55;;;6.50;79.00;;;;;;4976724;28;20031;-72
2024/02/18 04:58:25;;;;;;;29.10;19.30;;;6.50;78.90;;;;;;4976695;28;20023;-73
2024/02/18 05:00:51;;;;;;;27.83;19.30;;;6.50;78.90;;;;;;4976689;28;20152;-72
2024/02/18 05:03:16;;;;;;;26.25;17.65;;;6.50;78.90;;;;;;4975379;28;20026;-72
2024/02/18 05:05:42;;;;;;;29.98;17.95;;;6.50;78.80;;;;;;4976368;28;20500;-74
2024/02/18 05:08:08;;;;;;;30.52;17.90;;;6.40;78.70;;;;;;4976532;28;20022;-74
2024/02/18 05:10:34;;;;;;;28.38;17.23;;;6.30;79.00;;;;;;4976421;28;20093;-72
2024/02/18 05:12:59;;;;;;;27.15;17.02;;;6.30;79.20;;;;;;4976451;28;20023;-71
2024/02/18 05:15:25;;;;;;;29.30;17.23;;;6.30;79.50;;;;;;4976212;28;20034;-73
2024/02/18 05:17:50;;;;;;;31.33;18.10;;;6.40;79.30;;;;;;4976391;28;20392;-73
2024/02/18 05:20:15;;;;;;;28.85;17.77;;;6.30;79.20;;;;;;4976328;28;20078;-73
2024/02/18 05:22:41;;;;;;;27.15;17.48;;;6.30;79.30;;;;;;4976173;28;20023;-73
2024/02/18 05:25:07;;;;;;;23.27;15.40;;;6.40;79.40;;;;;;4976091;28;20395;-73
2024/02/18 05:27:33;;;;;;;24.10;15.40;;;6.40;79.50;;;;;;4976583;28;20041;-73
2024/02/18 05:29:58;;;;;;;21.50;14.55;;;6.00;80.40;;;;;;4976491;28;20030;-74
2024/02/18 05:32:25;;;;;;;28.90;15.27;;;6.00;80.90;;;;;;4976224;28;20101;-72
2024/02/18 05:34:50;;;;;;;23.05;17.55;;;6.00;81.20;;;;;;4958703;28;20047;-74
2024/02/18 05:37:16;;;;;;;24.98;17.23;;;6.00;81.30;;;;;;4976046;28;20018;-74
2024/02/18 05:39:41;;;;;;;26.27;16.55;;;6.10;82.00;;;;;;4976023;28;20495;-73
2024/02/18 05:42:07;;;;;;;24.45;16.83;;;6.10;81.30;;;;;;4976213;28;20106;-74
2024/02/18 05:44:33;;;;;;;26.92;17.42;;;6.10;81.20;;;;;;4975706;28;20049;-73
2024/02/18 05:46:58;;;;;;;20.10;15.00;;;6.10;81.10;;;;;;4958580;28;20023;-72
2024/02/18 05:49:24;;;;;;;23.77;17.02;;;6.20;80.90;;;;;;4975843;28;20027;-73
2024/02/18 05:51:53;;;;;;;24.35;16.50;;;6.20;80.90;;;;;;4975846;28;20027;-73
2024/02/18 05:54:23;;;;;;;22.67;15.75;;;6.20;81.60;;;;;;4974480;28;20612;-75
2024/02/18 05:56:49;;;;;;;21.35;15.95;;;6.20;80.60;;;;;;4975749;28;20027;-72
2024/02/18 05:59:14;;;;;;;21.17;15.43;;;6.20;80.40;;;;;;4975779;28;20118;-72
2024/02/18 06:01:40;;;;;;;20.20;15.00;;;6.20;80.40;;;;;;4974605;28;20030;-72
2024/02/18 06:04:06;;;;;;;22.52;15.65;;;6.30;80.50;;;;;;4975283;28;20039;-75
2024/02/18 06:06:32;;;;;;;23.42;16.92;;;6.30;80.40;;;;;;4975435;28;20030;-74
2024/02/18 06:08:57;;;;;;;22.75;16.63;;;6.30;80.30;;;;;;4975785;28;20023;-75
2024/02/18 06:11:23;;;;;;;22.23;16.58;;;6.30;80.20;;;;;;4958053;28;20037;-74
2024/02/18 06:13:48;;;;;;;25.02;16.05;;;6.30;80.10;;;;;;4975390;28;20064;-74
2024/02/18 06:16:14;;;;;;;23.35;16.90;;;6.30;80.10;;;;;;4975255;28;20533;-75
2024/02/18 06:18:40;;;;;;;22.65;16.45;;;6.30;80.00;;;;;;4974163;28;20027;-75
2024/02/18 06:21:05;;;;;;;23.27;15.70;;;6.40;80.00;;;;;;4975201;28;20018;-75
2024/02/18 06:23:31;;;;;;;22.35;16.92;;;6.30;79.90;;;;;;4975092;28;20019;-73
2024/02/18 06:25:56;;;;;;;24.75;17.00;;;6.40;79.80;;;;;;4973730;28;20038;-75
2024/02/18 06:28:22;;;;;;;24.98;16.92;;;6.30;79.70;;;;;;4975067;28;20030;-75
2024/02/18 06:30:48;;;;;;;23.23;16.73;;;6.30;79.50;;;;;;4973850;28;20073;-75
2024/02/18 06:33:14;;;;;;;22.63;15.63;;;6.30;79.80;;;;;;4975034;28;20055;-73
2024/02/18 06:35:39;;;;;;;21.27;15.82;;;6.30;79.70;;;;;;4957470;28;20468;-73
2024/02/18 06:38:05;;;;;;;26.52;16.27;;;6.30;79.60;;;;;;4973704;28;20472;-73
2024/02/18 06:40:31;;;;;;;21.65;15.13;;;6.20;79.10;;;;;;4957992;28;20023;-76
2024/02/18 06:42:57;;;;;;;23.73;15.05;;;6.20;79.40;;;;;;4974935;28;20476;-73
2024/02/18 06:45:22;;;;;;;26.02;17.13;;;6.20;79.40;;;;;;4957411;28;20575;-72
2024/02/18 06:47:48;;;;;;;24.80;16.80;;;6.30;79.50;;;;;;4957564;28;20031;-73
2024/02/18 06:50:15;;;;;;;26.33;16.02;;;6.40;79.30;;;;;;4974735;28;20027;-73
2024/02/18 06:52:40;;;;;;;22.08;16.52;;;6.40;79.00;;;;;;4974505;28;20058;-73
2024/02/18 06:55:06;;;;;;;21.27;15.02;;;6.50;79.00;;;;;;4973760;28;20025;-73
2024/02/18 06:57:32;;;;;;;22.42;15.75;;;6.40;77.80;;;;;;4974519;28;20410;-73
2024/02/18 06:59:58;;;;;;;20.55;14.55;;;6.40;77.60;;;;;;4974710;28;20026;-73
2024/02/18 07:02:23;;;;;;;23.70;15.77;;;6.40;77.80;;;;;;4957111;28;20081;-75
2024/02/18 07:04:49;;;;;;;21.83;14.13;;;6.30;78.00;;;;;;4957472;28;20046;-73
2024/02/18 07:07:15;;;;;;;21.50;15.05;;;6.40;78.20;;;;;;4974388;28;20111;-72
2024/02/18 07:09:42;;;;;;;22.52;16.27;;;6.40;78.20;;;;;;4957041;28;20023;-73
2024/02/18 07:12:08;;;;;;;22.65;15.55;;;6.50;78.20;;;;;;4974142;28;20019;-74
2024/02/18 07:14:33;;;;;;;23.30;16.90;;;6.60;77.90;;;;;;4974070;28;20038;-73
2024/02/18 07:17:00;;;;;;;22.35;17.20;;;6.70;77.40;;;;;;4956702;28;20503;-73
2024/02/18 07:19:25;;;;;;;23.15;15.32;;;6.70;77.20;;;;;;4957115;28;20033;-73
2024/02/18 07:21:51;;;;;;;23.73;15.65;;;6.70;77.00;;;;;;4957887;28;20035;-74
2024/02/18 07:24:18;;;;;;;23.73;15.63;;;6.70;77.10;;;;;;4974420;28;20133;-73
2024/02/18 07:26:43;;;;;;;22.65;16.65;;;6.70;77.00;;;;;;4973075;28;20173;-72
2024/02/18 07:29:09;;;;;;;19.50;14.50;;;6.80;77.10;;;;;;4974251;28;20526;-72
2024/02/18 07:31:36;;;;;;;18.80;13.75;;;6.90;76.80;;;;;;4974063;28;20034;-73
2024/02/18 07:34:04;;;;;;;21.63;14.05;;;6.90;76.50;;;;;;4973865;28;20031;-75
2024/02/18 07:36:30;;;;;;;21.30;14.63;;;7.10;76.40;;;;;;4956601;28;20082;-74
2024/02/18 07:38:56;;;;;;;20.35;14.25;;;7.20;75.90;;;;;;4973995;28;20038;-73
2024/02/18 07:41:23;;;;;;;24.50;13.77;;;7.30;75.70;;;;;;4974101;28;20023;-74
2024/02/18 07:43:49;;;;;;;19.13;12.70;;;7.40;79.80;;;;;;4974398;28;20392;-77
2024/02/18 07:46:16;;;;;;;19.92;14.07;;;7.60;78.20;;;;;;4974227;28;20031;-80
2024/02/18 07:48:43;;;;;;;21.60;13.27;;;7.80;76.50;;;;;;4940907;28;20023;-77
2024/02/18 07:51:10;;;;;;;20.63;14.48;;;8.00;74.70;;;;;;4972916;28;20027;-76
2024/02/18 07:53:35;;;;;;;22.25;14.27;;;8.10;73.20;;;;;;4956693;28;20532;-74
2024/02/18 07:56:01;;;;;;;19.88;14.10;;;8.20;72.60;;;;;;4957269;28;20069;-76
2024/02/18 07:58:28;;;;;;;20.20;14.93;;;8.30;72.80;;;;;;4956941;28;20030;-75
2024/02/18 08:00:55;;;;;;;20.70;13.98;;;8.40;71.50;;;;;;4956881;28;20439;-75
2024/02/18 08:03:20;;;;;;;20.20;13.18;;;8.50;71.40;;;;;;4956790;28;20494;-76
2024/02/18 08:05:48;;;;;;;18.90;12.90;;;8.50;71.30;;;;;;4973840;28;20042;-76
2024/02/18 08:08:15;;;;;;;18.95;12.70;;;8.60;71.20;;;;;;4958780;28;20035;-88
2024/02/18 08:10:43;;;;;;;19.92;13.82;;;8.70;71.00;;;;;;4977202;28;20488;-76
2024/02/18 08:13:09;;;;;;;17.65;12.50;;;9.00;69.90;;;;;;4974454;28;20073;-76
2024/02/18 08:15:35;;;;;;;15.65;11.38;;;9.40;69.00;;;;;;4958955;28;20045;-87
2024/02/18 08:18:02;;;;;;;14.10;10.75;;;9.70;67.80;;;;;;4959372;28;20034;-75
2024/02/18 08:20:28;;;;;;;16.38;10.90;;;10.00;66.20;;;;;;4974261;28;20392;-77
2024/02/18 08:22:54;;;;;;;11.55;9.63;;;10.30;65.20;;;;;;4958722;28;20143;-84
2024/02/18 08:25:20;;;;;;;14.00;10.43;;;10.50;64.00;;;;;;4954538;29;20035;-84
2024/02/18 08:27:46;;;;;;;14.57;10.77;;;10.80;62.20;;;;;;4959065;28;20543;-84
2024/02/18 08:30:11;;;;;;;11.18;9.75;;;11.10;61.50;;;;;;4958871;28;20023;-82
2024/02/18 08:32:38;;;;;;;10.00;8.90;;;11.40;60.30;;;;;;4958674;29;20110;-84
2024/02/18 08:35:05;;;;;;;11.52;8.95;;;11.80;58.20;;;;;;4958756;29;20037;-87
2024/02/18 08:37:31;;;;;;;12.40;9.48;;;12.00;56.90;;;;;;4958805;28;20027;-88
2024/02/18 08:39:57;;;;;;;9.10;7.72;;;12.10;55.90;;;;;;4963739;29;20028;-83
2024/02/18 08:42:22;;;;;;;10.80;7.95;;;12.10;55.50;;;;;;4957024;29;20094;-72
2024/02/18 08:44:48;;;;;;;8.52;7.43;;;12.10;54.80;;;;;;4957690;29;20039;-72
2024/02/18 08:47:14;;;;;;;10.15;8.15;;;12.00;54.80;;;;;;4957743;29;20421;-77
2024/02/18 08:49:41;;;;;;;10.07;7.35;;;11.90;55.00;;;;;;4957551;29;20027;-76
2024/02/18 08:52:07;;;;;;;7.85;7.07;;;11.90;54.70;;;;;;4957269;29;20484;-76
2024/02/18 08:54:33;;;;;;;7.55;6.63;;;11.90;54.90;;;;;;4957765;29;20043;-75
2024/02/18 08:56:58;;;;;;;8.57;6.57;;;11.90;54.80;;;;;;4956145;29;20037;-75
2024/02/18 08:59:24;;;;;;;7.55;6.22;;;12.10;54.60;;;;;;4957544;29;20362;-73
2024/02/18 09:01:56;;;;;;;6.32;5.53;;;12.20;54.10;;;;;;4957489;29;20065;-75
2024/02/18 09:04:23;;;;;;;5.60;5.00;;;12.30;53.30;;;;;;4957050;29;20307;-73
2024/02/18 09:06:48;;;;;;;6.78;5.13;;;12.40;51.70;;;;;;4957345;29;20425;-75
2024/02/18 09:09:14;;;;;;;6.22;5.30;;;12.40;51.90;;;;;;4957485;29;20023;-73
2024/02/18 09:11:42;;;;;;;6.32;5.18;;;12.50;51.60;;;;;;4957035;29;20030;-75
2024/02/18 09:14:08;;;;;;;7.03;4.82;;;12.50;51.80;;;;;;4958060;29;20110;-75
2024/02/18 09:16:33;;;;;;;5.45;4.82;;;12.60;51.80;;;;;;4957010;29;20514;-73
2024/02/18 09:18:59;;;;;;;7.95;4.68;;;12.80;51.60;;;;;;4957085;29;20023;-73
2024/02/18 09:21:24;;;;;;;4.95;4.20;;;12.80;50.10;;;;;;4957009;29;20021;-74
2024/02/18 09:23:50;;;;;;;5.72;4.88;;;12.80;49.90;;;;;;4956909;29;20102;-72
2024/02/18 09:26:15;;;;;;;4.63;4.20;;;12.90;50.00;;;;;;4956930;29;20357;-74
2024/02/18 09:28:41;;;;;;;5.15;4.60;;;12.90;49.80;;;;;;4956787;29;20056;-72
2024/02/18 09:31:08;;;;;;;7.32;5.35;;;13.00;49.70;;;;;;4956821;29;20059;-73
2024/02/18 09:33:34;;;;;;;7.93;5.72;;;13.10;49.30;;;;;;4956701;29;20125;-73
2024/02/18 09:36:00;;;;;;;10.25;6.13;;;12.90;49.40;;;;;;4956761;28;20035;-74
2024/02/18 09:38:26;;;;;;;7.00;5.40;;;12.90;49.70;;;;;;4955725;29;20528;-74
2024/02/18 09:40:51;;;;;;;6.00;5.03;;;12.90;49.60;;;;;;4956068;29;20071;-75
2024/02/18 09:43:18;;;;;;;6.30;4.97;;;13.00;48.90;;;;;;4955058;29;20038;-75
2024/02/18 09:45:46;;;;;;;6.30;5.65;;;13.10;49.30;;;;;;4956276;29;20078;-73
2024/02/18 09:48:15;;;;;;;8.63;6.05;;;13.30;49.10;;;;;;4956552;29;20030;-74
2024/02/18 09:50:41;;;;;;;5.82;5.22;;;13.40;49.40;;;;;;4956306;29;20051;-74
2024/02/18 09:53:08;;;;;;;7.80;5.47;;;13.60;49.50;;;;;;4955217;29;20069;-76
2024/02/18 09:55:36;;;;;;;6.95;6.25;;;13.80;48.60;;;;;;4956329;29;20043;-74
2024/02/18 09:58:02;;;;;;;6.25;5.35;;;14.00;48.40;;;;;;4956398;29;20031;-73
2024/02/18 10:00:28;;;;;;;8.40;5.80;;;14.10;47.80;;;;;;4958436;29;20062;-75
2024/02/18 10:02:54;;;;;;;10.73;6.72;;;14.30;47.70;;;;;;4957537;29;20047;-75
2024/02/18 10:05:20;;;;;;;9.10;6.60;;;14.20;47.30;;;;;;4955036;29;20031;-76
2024/02/18 10:07:58;;;;;;;9.93;6.70;;;14.10;48.50;;;;;;4956179;29;20023;-76
2024/02/18 10:10:24;;;;;;;8.30;7.43;;;14.10;48.20;;;;;;4956047;29;20028;-78
2024/02/18 10:12:49;;;;;;;9.95;7.53;;;13.90;48.60;;;;;;4956202;29;20384;-75
2024/02/18 10:15:16;;;;;;;8.35;7.22;;;14.00;49.20;;;;;;4956033;29;20031;-74
2024/02/18 10:17:42;;;;;;;10.48;7.63;;;13.90;48.80;;;;;;4956205;29;20384;-74
2024/02/18 10:20:07;;;;;;;10.25;8.55;;;14.10;48.60;;;;;;4956118;29;20019;-76
2024/02/18 10:22:33;;;;;;;9.82;8.25;;;13.80;48.70;;;;;;4955791;29;20108;-73
2024/02/18 10:24:59;;;;;;;10.18;8.07;;;13.40;49.80;;;;;;4954501;29;20404;-74
2024/02/18 10:27:24;;;;;;;10.98;8.32;;;13.30;51.20;;;;;;4955644;29;20060;-73
2024/02/18 10:29:51;;;;;;;11.68;8.52;;;13.30;50.70;;;;;;4955530;29;20038;-76
2024/02/18 10:32:18;;;;;;;8.88;7.97;;;13.30;51.00;;;;;;4955769;28;20099;-76
2024/02/18 10:34:44;;;;;;;9.43;7.97;;;13.40;51.50;;;;;;4959840;28;20033;-77
2024/02/18 10:37:40;;;;;;;9.93;8.30;;;13.40;50.70;;;;;;4957456;28;20365;-76
2024/02/18 10:40:09;;;;;;;10.98;8.73;;;13.40;51.50;;;;;;4969107;28;20045;-75
2024/02/18 10:42:37;;;;;;;10.73;9.07;;;13.20;52.80;;;;;;4976472;28;20463;-77
2024/02/18 10:45:04;;;;;;;11.30;9.13;;;13.20;52.80;;;;;;4976455;28;20059;-75
2024/02/18 10:47:33;;;;;;;10.82;9.35;;;13.20;52.70;;;;;;4992761;28;20026;-77
2024/02/18 10:50:04;;;;;;;12.15;9.88;;;13.30;53.00;;;;;;4994151;28;20038;-75
2024/02/18 10:52:38;;;;;;;12.80;10.95;;;13.50;51.80;;;;;;4994227;28;20023;-77
2024/02/18 10:55:15;;;;;;;11.63;10.15;;;13.10;52.80;;;;;;4993932;28;20530;-76
2024/02/18 10:58:11;;;;;;;13.45;10.55;;;13.10;53.90;;;;;;4976595;28;20022;-74
2024/02/18 11:00:43;;;;;;;11.73;10.15;;;12.90;54.90;;;;;;4992851;28;20026;-78
2024/02/18 11:03:17;;;;;;;12.55;10.43;;;12.80;54.80;;;;;;4976895;28;20030;-77
2024/02/18 11:05:44;;;;;;;12.03;10.73;;;12.80;55.40;;;;;;4993905;28;20030;-77
2024/02/18 11:08:10;;;;;;;11.48;10.20;;;12.70;56.20;;;;;;4976513;28;20023;-78
2024/02/18 11:10:37;;;;;;;11.93;9.77;;;12.80;55.90;;;;;;4976672;28;20054;-77
2024/02/18 11:13:07;;;;;;;9.90;8.77;;;12.80;55.10;;;;;;4993729;28;20023;-75
2024/02/18 11:15:35;;;;;;;13.02;9.98;;;13.00;55.10;;;;;;4993001;28;20038;-76
2024/02/18 11:18:01;;;;;;;15.27;11.00;;;13.00;54.70;;;;;;4992763;28;20025;-75
2024/02/18 11:20:28;;;;;;;10.95;9.70;;;13.00;54.50;;;;;;4992733;28;20065;-77
2024/02/18 11:22:54;;;;;;;11.98;9.93;;;13.10;54.70;;;;;;4992680;28;20030;-76
2024/02/18 11:25:22;;;;;;;11.38;9.88;;;13.00;55.50;;;;;;4992620;28;20427;-76
2024/02/18 11:27:48;;;;;;;10.70;9.60;;;12.90;56.00;;;;;;4992552;28;20125;-76
2024/02/18 11:30:15;;;;;;;10.02;9.02;;;12.80;56.50;;;;;;4992485;28;20034;-75
2024/02/18 11:32:41;;;;;;;9.15;8.25;;;12.90;55.70;;;;;;4992460;28;20022;-75
2024/02/18 11:35:11;;;;;;;11.48;8.20;;;12.90;55.70;;;;;;4976127;28;20360;-76
2024/02/18 11:37:38;;;;;;;9.05;7.43;;;13.00;55.30;;;;;;4993636;28;20551;-76
2024/02/18 11:40:17;;;;;;;7.68;6.72;;;13.10;55.60;;;;;;4993534;28;20117;-72
2024/02/18 11:42:44;;;;;;;7.97;6.72;;;13.10;55.10;;;;;;4993569;28;20019;-73
2024/02/18 11:45:12;;;;;;;12.05;10.75;;;13.10;55.60;;;;;;4976138;28;20026;-75
2024/02/18 11:47:44;;;;;;;12.63;10.75;;;13.10;58.90;;;;;;4992678;28;20029;-77
2024/02/18 11:50:10;;;;;;;13.38;11.10;;;13.40;58.90;;;;;;4975264;28;20037;-73
2024/02/18 11:52:37;;;;;;;11.60;10.45;;;13.50;58.10;;;;;;4993302;28;20030;-73
2024/02/18 11:55:17;;;;;;;10.98;9.82;;;13.60;58.00;;;;;;4993141;28;20022;-74
2024/02/18 11:57:44;;;;;;;10.27;8.75;;;13.50;58.10;;;;;;4993659;28;20034;-73
2024/02/18 12:00:11;;;;;;;10.40;8.65;;;13.60;56.90;;;;;;4996156;28;20026;-74
2024/02/18 12:02:38;;;;;;;6.50;5.90;;;13.70;56.60;;;;;;4997285;28;20022;-72
2024/02/18 12:05:10;;;;;;;6.78;6.03;;;13.60;54.30;;;;;;4996972;28;20419;-73
2024/02/18 12:07:38;;;;;;;6.72;6.10;;;13.70;54.30;;;;;;4979657;28;20073;-73
2024/02/18 12:10:04;;;;;;;6.95;6.13;;;13.70;54.10;;;;;;4997025;28;20093;-72
2024/02/18 12:12:30;;;;;;;8.00;6.60;;;13.90;53.60;;;;;;4996989;28;20026;-74
2024/02/18 12:14:55;;;;;;;9.13;8.15;;;13.70;55.00;;;;;;4996958;28;20109;-74
2024/02/18 12:17:24;;;;;;;8.40;7.60;;;13.40;56.20;;;;;;4996931;28;20046;-73
2024/02/18 12:19:51;;;;;;;9.15;8.23;;;13.30;56.90;;;;;;4996937;28;20029;-72
2024/02/18 12:22:24;;;;;;;9.70;8.70;;;13.20;57.00;;;;;;4996642;28;20026;-72
2024/02/18 12:24:51;;;;;;;12.52;8.75;;;13.00;57.30;;;;;;4984911;28;20035;-72
2024/02/18 12:27:18;;;;;;;9.73;8.73;;;13.00;57.60;;;;;;4959936;28;20026;-73
2024/02/18 12:29:45;;;;;;;9.20;8.13;;;13.20;56.70;;;;;;4977429;28;20428;-72
2024/02/18 12:32:12;;;;;;;10.45;8.90;;;13.20;56.40;;;;;;4959575;28;20506;-72
2024/02/18 12:34:38;;;;;;;10.02;8.32;;;13.20;56.20;;;;;;4977202;28;20451;-73